createdAt,value
2018-04-06T00:00:23.231Z,3.20
2018-04-06T00:02:52.802Z,3.03
2018-04-06T00:05:22.723Z,3.08
2018-04-06T00:07:53.217Z,3.72
2018-04-06T00:10:22.836Z,3.20
2018-04-06T00:15:27.645Z,4.15
2018-04-06T00:18:03.073Z,3.45
2018-04-06T00:20:32.700Z,3.50
2018-04-06T00:23:03.242Z,3.40
2018-04-06T00:25:32.990Z,2.60
2018-04-06T00:28:05.148Z,4.05
2018-04-06T00:30:34.954Z,3.67
2018-04-06T00:33:04.528Z,4.00
2018-04-06T00:35:34.071Z,5.25
2018-04-06T00:38:04.011Z,5.22
2018-04-06T00:40:34.415Z,3.47
2018-04-06T00:43:04.271Z,4.00
2018-04-06T00:45:33.992Z,4.28
2018-04-06T00:48:12.486Z,4.20
2018-04-06T00:50:41.904Z,4.20
2018-04-06T00:53:17.748Z,4.37
2018-04-06T00:55:49.544Z,3.90
2018-04-06T00:58:20.110Z,4.60
2018-04-06T01:00:53.942Z,5.15
2018-04-06T01:03:23.635Z,4.68
2018-04-06T01:05:53.839Z,4.60
2018-04-06T01:08:24.273Z,4.55
2018-04-06T01:10:54.472Z,4.25
2018-04-06T01:13:24.075Z,3.60
2018-04-06T01:15:53.483Z,4.22
2018-04-06T01:18:22.804Z,3.62
2018-04-06T01:20:52.761Z,3.75
2018-04-06T01:23:22.117Z,4.10
2018-04-06T01:25:52.541Z,3.25
2018-04-06T01:28:23.166Z,3.45
2018-04-06T01:30:52.500Z,3.45
2018-04-06T01:33:21.952Z,3.70
2018-04-06T01:36:05.588Z,4.28
2018-04-06T01:38:35.101Z,3.95
2018-04-06T01:41:04.601Z,3.90
2018-04-06T01:43:34.112Z,4.03
2018-04-06T01:46:04.031Z,4.15
2018-04-06T01:48:33.327Z,4.37
2018-04-06T01:51:03.724Z,4.15
2018-04-06T01:53:32.940Z,4.22
2018-04-06T01:56:02.577Z,4.32
2018-04-06T01:58:32.955Z,4.55
2018-04-06T02:01:02.325Z,5.28
2018-04-06T02:03:32.206Z,4.47
2018-04-06T02:06:02.411Z,4.40
2018-04-06T02:08:31.758Z,4.80
2018-04-06T02:11:02.062Z,4.75
2018-04-06T02:13:32.482Z,4.37
2018-04-06T02:16:02.571Z,4.30
2018-04-06T02:18:32.024Z,4.07
2018-04-06T02:21:02.407Z,4.30
2018-04-06T02:23:31.508Z,3.90
2018-04-06T02:26:01.729Z,4.28
2018-04-06T02:28:31.259Z,4.80
2018-04-06T02:31:01.438Z,4.22
2018-04-06T02:33:30.973Z,4.25
2018-04-06T02:36:00.876Z,4.62
2018-04-06T02:38:30.807Z,4.57
2018-04-06T02:40:59.890Z,4.40
2018-04-06T02:43:29.160Z,4.80
2018-04-06T02:45:58.353Z,4.30
2018-04-06T02:48:27.762Z,3.80
2018-04-06T02:50:56.865Z,4.82
2018-04-06T02:53:26.359Z,5.05
2018-04-06T02:55:55.458Z,4.60
2018-04-06T02:58:24.722Z,5.07
2018-04-06T03:00:54.364Z,4.75
2018-04-06T03:03:23.424Z,6.55
2018-04-06T03:05:52.604Z,4.90
2018-04-06T03:08:22.977Z,4.62
2018-04-06T03:10:52.224Z,5.15
2018-04-06T03:13:22.333Z,4.95
2018-04-06T03:15:51.448Z,5.30
2018-04-06T03:18:21.485Z,6.30
2018-04-06T03:20:50.986Z,6.93
2018-04-06T03:23:20.221Z,6.18
2018-04-06T03:25:49.500Z,6.10
2018-04-06T03:28:19.152Z,7.82
2018-04-06T03:30:48.481Z,6.25
2018-04-06T03:33:18.303Z,6.37
2018-04-06T03:35:47.738Z,6.47
2018-04-06T03:38:17.839Z,6.03
2018-04-06T03:40:47.028Z,8.27
2018-04-06T03:43:16.400Z,8.68
2018-04-06T03:45:46.389Z,7.90
2018-04-06T03:48:15.449Z,7.20
2018-04-06T03:50:44.588Z,7.60
2018-04-06T03:53:14.844Z,7.37
2018-04-06T03:55:46.598Z,10.07
2018-04-06T03:58:16.397Z,7.03
2018-04-06T04:00:46.329Z,7.85
2018-04-06T04:03:16.231Z,8.73
2018-04-06T04:05:46.384Z,8.07
2018-04-06T04:08:15.414Z,7.35
2018-04-06T04:10:44.520Z,8.20
2018-04-06T04:13:13.600Z,11.10
2018-04-06T04:15:43.255Z,8.80
2018-04-06T04:18:13.313Z,7.70
2018-04-06T04:20:42.455Z,8.10
2018-04-06T04:23:12.388Z,8.73
2018-04-06T04:25:42.218Z,9.15
2018-04-06T04:28:12.513Z,8.77
2018-04-06T04:30:42.929Z,8.65
2018-04-06T04:33:12.958Z,8.00
2018-04-06T04:35:42.793Z,9.77
2018-04-06T04:38:12.142Z,10.25
2018-04-06T04:40:41.312Z,8.07
2018-04-06T04:43:10.410Z,8.10
2018-04-06T04:45:39.984Z,7.60
2018-04-06T04:48:10.082Z,6.95
2018-04-06T04:50:40.532Z,6.65
2018-04-06T04:53:09.922Z,8.02
2018-04-06T04:55:40.066Z,8.32
2018-04-06T04:58:09.720Z,6.37
2018-04-06T05:00:39.199Z,6.22
2018-04-06T05:03:08.572Z,7.85
2018-04-06T05:05:38.231Z,6.93
2018-04-06T05:08:08.725Z,6.10
2018-04-06T05:10:38.784Z,7.25
2018-04-06T05:13:08.784Z,5.65
2018-04-06T05:15:39.218Z,6.10
2018-04-06T05:18:08.770Z,6.72
2018-04-06T05:20:38.270Z,6.03
2018-04-06T05:23:08.510Z,7.18
2018-04-06T05:25:38.406Z,7.00
2018-04-06T05:28:14.032Z,7.20
2018-04-06T05:30:43.494Z,8.05
2018-04-06T05:33:13.820Z,7.18
2018-04-06T05:35:44.868Z,7.12
2018-04-06T05:38:14.790Z,7.60
2018-04-06T05:40:46.475Z,7.35
2018-04-06T05:43:17.307Z,6.30
2018-04-06T05:45:48.168Z,6.25
2018-04-06T05:48:18.966Z,6.97
2018-04-06T05:50:48.883Z,6.07
2018-04-06T05:53:18.577Z,9.15
2018-04-06T05:55:48.247Z,8.63
2018-04-06T05:58:18.972Z,9.30
2018-04-06T06:00:48.980Z,9.60
2018-04-06T06:03:19.621Z,8.48
2018-04-06T06:05:49.371Z,8.18
2018-04-06T06:08:18.979Z,7.70
2018-04-06T06:10:48.559Z,7.90
2018-04-06T06:13:18.376Z,7.95
2018-04-06T06:15:48.148Z,8.02
2018-04-06T06:18:18.432Z,9.65
2018-04-06T06:20:48.264Z,8.45
2018-04-06T06:23:18.334Z,7.60
2018-04-06T06:25:47.953Z,7.35
2018-04-06T06:28:17.543Z,7.45
2018-04-06T06:30:47.044Z,7.03
2018-04-06T06:33:18.593Z,7.70
2018-04-06T06:35:48.338Z,7.75
2018-04-06T06:38:19.034Z,9.25
2018-04-06T06:40:49.698Z,9.18
2018-04-06T06:43:20.168Z,9.63
2018-04-06T06:45:49.782Z,9.15
2018-04-06T06:48:20.622Z,9.00
2018-04-06T06:50:51.192Z,8.20
2018-04-06T06:53:20.875Z,8.20
2018-04-06T06:55:54.483Z,7.28
2018-04-06T06:58:24.564Z,7.15
2018-04-06T07:01:25.075Z,7.03
2018-04-06T07:03:54.791Z,7.85
2018-04-06T07:06:25.264Z,7.80
2018-04-06T07:08:56.148Z,6.80
2018-04-06T07:11:25.712Z,6.78
2018-04-06T07:13:56.248Z,6.72
2018-04-06T07:16:26.596Z,6.40
2018-04-06T07:18:56.508Z,8.77
2018-04-06T07:21:29.378Z,7.72
2018-04-06T07:23:59.822Z,7.22
2018-04-06T07:26:29.914Z,7.10
2018-04-06T07:29:00.772Z,7.07
2018-04-06T07:31:31.003Z,7.72
2018-04-06T07:34:00.794Z,6.50
2018-04-06T07:36:31.872Z,7.07
2018-04-06T07:39:01.769Z,6.20
2018-04-06T07:41:31.608Z,6.03
2018-04-06T07:44:01.744Z,3.83
2018-04-06T07:46:32.640Z,3.17
2018-04-06T07:49:02.996Z,4.00
2018-04-06T07:51:50.514Z,3.40
2018-04-06T07:54:20.057Z,3.58
2018-04-06T07:56:50.708Z,4.37
2018-04-06T07:59:21.087Z,3.53
2018-04-06T08:02:12.915Z,3.08
2018-04-06T08:04:44.411Z,3.72
2018-04-06T08:07:14.294Z,3.22
2018-04-06T08:09:45.160Z,3.00
2018-04-06T08:12:14.843Z,2.55
2018-04-06T08:14:45.613Z,3.28
2018-04-06T08:17:15.447Z,3.62
2018-04-06T08:19:45.371Z,3.12
2018-04-06T08:22:15.385Z,4.35
2018-04-06T08:24:46.443Z,3.80
2018-04-06T08:27:30.603Z,3.30
2018-04-06T08:30:01.171Z,3.60
2018-04-06T08:32:32.810Z,3.45
2018-04-06T08:35:03.718Z,3.92
2018-04-06T08:37:33.377Z,3.05
2018-04-06T08:40:03.887Z,3.20
2018-04-06T08:42:35.007Z,2.67
2018-04-06T08:45:04.626Z,2.72
2018-04-06T08:47:35.012Z,3.33
2018-04-06T08:50:06.845Z,3.15
2018-04-06T08:52:37.311Z,3.10
2018-04-06T08:55:07.975Z,3.65
2018-04-06T08:57:38.677Z,2.53
2018-04-06T09:00:09.190Z,3.62
2018-04-06T09:02:39.547Z,2.80
2018-04-06T09:05:10.742Z,3.10
2018-04-06T09:07:40.563Z,3.62
2018-04-06T09:10:10.343Z,3.83
2018-04-06T09:12:40.466Z,3.60
2018-04-06T09:15:11.107Z,3.30
2018-04-06T09:17:41.818Z,3.40
2018-04-06T09:20:14.497Z,3.25
2018-04-06T09:22:44.296Z,3.75
2018-04-06T09:25:17.220Z,3.70
2018-04-06T09:27:53.135Z,3.55
2018-04-06T09:30:24.104Z,3.85
2018-04-06T09:32:54.748Z,3.72
2018-04-06T09:35:26.474Z,3.70
2018-04-06T09:37:57.326Z,3.50
2018-04-06T09:40:28.500Z,3.00
2018-04-06T09:42:59.146Z,3.55
2018-04-06T09:45:29.480Z,3.83
2018-04-06T09:48:00.409Z,3.12
2018-04-06T09:50:30.432Z,3.50
2018-04-06T09:53:35.976Z,3.65
2018-04-06T09:56:07.114Z,2.70
2018-04-06T09:58:44.990Z,2.60
2018-04-06T10:01:15.053Z,2.70
2018-04-06T10:03:45.371Z,2.78
2018-04-06T10:06:15.059Z,2.22
2018-04-06T10:08:46.102Z,2.20
2018-04-06T10:11:17.204Z,2.80
2018-04-06T10:13:47.282Z,2.25
2018-04-06T10:16:17.168Z,3.87
2018-04-06T10:18:47.319Z,2.10
2018-04-06T10:21:18.586Z,1.70
2018-04-06T10:23:48.158Z,2.35
2018-04-06T10:26:18.126Z,2.05
2018-04-06T10:28:48.235Z,2.12
2018-04-06T10:31:19.003Z,2.53
2018-04-06T10:33:49.239Z,3.05
2018-04-06T10:36:31.219Z,2.90
2018-04-06T10:39:00.980Z,2.83
2018-04-06T10:41:30.558Z,2.75
2018-04-06T10:44:00.830Z,2.50
2018-04-06T10:46:31.130Z,2.33
2018-04-06T10:49:00.722Z,2.45
2018-04-06T10:51:31.379Z,2.40
2018-04-06T10:54:01.837Z,2.87
2018-04-06T10:56:32.564Z,3.05
2018-04-06T11:01:37.785Z,2.80
2018-04-06T11:04:08.806Z,2.53
2018-04-06T11:06:39.244Z,3.20
2018-04-06T11:09:09.215Z,2.75
2018-04-06T11:11:39.332Z,2.83
2018-04-06T11:14:09.884Z,3.08
2018-04-06T11:16:39.672Z,3.20
2018-04-06T11:19:09.470Z,4.25
2018-04-06T11:21:39.477Z,3.30
2018-04-06T11:24:09.192Z,3.25
2018-04-06T11:26:40.230Z,3.90
2018-04-06T11:29:11.561Z,3.70
2018-04-06T11:31:42.231Z,3.25
2018-04-06T11:34:12.830Z,3.70
2018-04-06T11:36:43.737Z,3.40
2018-04-06T11:39:13.497Z,4.50
2018-04-06T11:41:44.044Z,3.90
2018-04-06T11:44:13.800Z,3.80
2018-04-06T11:46:43.710Z,3.55
2018-04-06T11:49:14.438Z,25.85
2018-04-06T11:51:44.608Z,2.80
2018-04-06T11:54:16.547Z,3.00
2018-04-06T11:56:47.014Z,2.75
2018-04-06T11:59:17.322Z,2.53
2018-04-06T12:01:47.734Z,2.83
2018-04-06T12:04:18.970Z,2.83
2018-04-06T12:06:48.643Z,2.05
2018-04-06T12:09:18.615Z,2.50
2018-04-06T12:11:49.163Z,2.15
2018-04-06T12:14:18.616Z,2.85
2018-04-06T12:16:49.075Z,2.40
2018-04-06T12:19:19.598Z,2.45
2018-04-06T12:21:50.102Z,2.17
2018-04-06T12:24:20.811Z,2.40
2018-04-06T12:26:51.168Z,2.00
2018-04-06T12:29:21.676Z,2.30
2018-04-06T12:31:51.375Z,2.10
2018-04-06T12:34:20.970Z,2.22
2018-04-06T12:36:50.768Z,2.60
2018-04-06T12:39:20.483Z,2.85
2018-04-06T12:41:51.824Z,2.72
2018-04-06T12:44:22.232Z,2.42
2018-04-06T12:46:53.283Z,2.33
2018-04-06T12:49:22.856Z,2.37
2018-04-06T12:51:52.489Z,3.05
2018-04-06T12:54:22.187Z,2.42
2018-04-06T12:56:52.085Z,2.90
2018-04-06T12:59:22.674Z,2.95
2018-04-06T13:01:52.347Z,3.17
2018-04-06T13:04:22.512Z,3.15
2018-04-06T13:06:52.289Z,3.78
2018-04-06T13:09:21.930Z,3.50
2018-04-06T13:11:51.385Z,3.53
2018-04-06T13:14:21.729Z,2.65
2018-04-06T13:16:52.227Z,3.35
2018-04-06T13:19:22.563Z,4.05
2018-04-06T13:21:55.299Z,3.58
2018-04-06T13:24:25.460Z,3.30
2018-04-06T13:26:57.182Z,3.35
2018-04-06T13:29:28.624Z,3.28
2018-04-06T13:31:58.333Z,3.40
2018-04-06T13:34:28.123Z,2.70
2018-04-06T13:36:57.723Z,3.45
2018-04-06T13:39:27.393Z,3.58
2018-04-06T13:41:58.416Z,2.90
2018-04-06T13:44:28.992Z,3.00
2018-04-06T13:46:59.358Z,3.15
2018-04-06T13:49:29.744Z,3.35
2018-04-06T13:51:59.993Z,3.05
2018-04-06T13:54:30.354Z,2.87
2018-04-06T13:57:02.159Z,3.33
2018-04-06T13:59:31.899Z,4.07
2018-04-06T14:02:04.908Z,3.08
2018-04-06T14:04:35.343Z,3.45
2018-04-06T14:07:10.356Z,3.40
2018-04-06T14:09:42.624Z,3.25
2018-04-06T14:12:21.031Z,3.50
2018-04-06T14:14:50.672Z,3.65
2018-04-06T14:17:21.106Z,3.85
2018-04-06T14:19:53.024Z,3.83
2018-04-06T14:25:09.908Z,5.05
2018-04-06T14:31:12.195Z,3.62
2018-04-06T14:33:49.292Z,4.30
2018-04-06T14:36:19.852Z,3.55
2018-04-06T14:38:49.619Z,3.58
2018-04-06T14:41:19.377Z,4.18
2018-04-06T14:43:54.301Z,3.42
2018-04-06T14:46:24.221Z,4.05
2018-04-06T14:48:54.740Z,4.05
2018-04-06T14:51:24.642Z,3.53
2018-04-06T14:53:54.293Z,3.75
2018-04-06T14:56:24.244Z,3.53
2018-04-06T14:58:54.862Z,3.65
2018-04-06T15:01:30.121Z,3.50
2018-04-06T15:04:00.731Z,2.87
2018-04-06T15:06:30.669Z,3.35
2018-04-06T15:09:00.295Z,3.05
2018-04-06T15:11:30.081Z,3.12
2018-04-06T15:14:00.696Z,3.60
2018-04-06T15:16:30.697Z,3.53
2018-04-06T15:19:01.373Z,5.10
2018-04-06T15:21:32.009Z,3.80
2018-04-06T15:24:01.604Z,3.78
2018-04-06T15:26:31.179Z,3.87
2018-04-06T15:29:01.465Z,4.60
2018-04-06T15:31:31.317Z,4.10
2018-04-06T15:34:02.282Z,3.58
2018-04-06T15:36:32.183Z,3.78
2018-04-06T15:39:01.704Z,4.25
2018-04-06T15:41:32.020Z,4.18
2018-04-06T15:44:02.668Z,4.00
2018-04-06T15:46:33.123Z,3.78
2018-04-06T15:49:02.537Z,4.20
2018-04-06T15:51:32.186Z,3.90
2018-04-06T15:54:02.383Z,4.05
2018-04-06T15:56:31.940Z,3.50
2018-04-06T15:59:03.144Z,3.20
2018-04-06T16:01:32.845Z,3.95
2018-04-06T16:04:02.909Z,3.58
2018-04-06T16:06:32.602Z,3.17
2018-04-06T16:09:02.896Z,3.47
2018-04-06T16:11:32.661Z,3.20
2018-04-06T16:14:02.451Z,3.90
2018-04-06T16:16:32.861Z,3.60
2018-04-06T16:19:03.295Z,3.45
2018-04-06T16:21:33.673Z,3.47
2018-04-06T16:24:03.463Z,3.33
2018-04-06T16:26:33.150Z,2.85
2018-04-06T16:29:03.762Z,3.05
2018-04-06T16:31:33.461Z,3.42
2018-04-06T16:34:03.089Z,3.55
2018-04-06T16:36:38.639Z,3.95
2018-04-06T16:39:09.160Z,3.08
2018-04-06T16:41:46.084Z,3.17
2018-04-06T16:44:15.545Z,3.60
2018-04-06T16:46:45.797Z,3.80
2018-04-06T16:49:17.557Z,3.50
2018-04-06T16:51:47.980Z,3.90
2018-04-06T16:54:17.727Z,3.85
2018-04-06T16:56:47.386Z,4.35
2018-04-06T16:59:17.148Z,4.40
2018-04-06T17:01:50.652Z,3.83
2018-04-06T17:04:21.440Z,4.07
2018-04-06T17:06:51.044Z,4.60
2018-04-06T17:09:20.666Z,4.78
2018-04-06T17:11:50.353Z,4.53
2018-04-06T17:14:20.855Z,4.40
2018-04-06T17:16:50.379Z,5.20
2018-04-06T17:19:21.022Z,4.80
2018-04-06T17:25:22.195Z,4.85
2018-04-06T17:28:04.483Z,5.05
2018-04-06T17:30:35.002Z,6.32
2018-04-06T17:33:04.369Z,5.18
2018-04-06T17:35:33.966Z,5.30
2018-04-06T17:38:04.070Z,4.35
2018-04-06T17:40:34.186Z,4.50
2018-04-06T17:43:03.940Z,4.90
2018-04-06T17:45:34.080Z,4.45
2018-04-06T17:48:03.506Z,4.47
2018-04-06T17:50:33.935Z,4.25
2018-04-06T17:53:03.700Z,4.30
2018-04-06T17:55:33.293Z,5.03
2018-04-06T17:58:02.642Z,4.47
2018-04-06T18:00:32.720Z,4.97
2018-04-06T18:03:02.163Z,5.35
2018-04-06T18:05:32.661Z,4.32
2018-04-06T18:08:02.181Z,4.47
2018-04-06T18:10:31.683Z,4.28
2018-04-06T18:13:01.329Z,4.10
2018-04-06T18:15:31.670Z,4.40
2018-04-06T18:18:01.051Z,3.78
2018-04-06T18:20:31.622Z,4.37
2018-04-06T18:23:01.254Z,4.10
2018-04-06T18:25:30.893Z,3.55
2018-04-06T18:28:01.632Z,4.25
2018-04-06T18:30:32.891Z,3.83
2018-04-06T18:33:02.307Z,3.50
2018-04-06T18:35:31.881Z,4.10
2018-04-06T18:38:01.468Z,3.90
2018-04-06T18:40:30.905Z,4.30
2018-04-06T18:43:00.385Z,4.53
2018-04-06T18:45:30.565Z,3.65
2018-04-06T18:48:03.276Z,4.25
2018-04-06T18:50:32.660Z,3.65
2018-04-06T18:53:02.072Z,4.00
2018-04-06T18:55:31.985Z,3.67
2018-04-06T18:58:01.512Z,3.92
2018-04-06T19:00:31.635Z,3.83
2018-04-06T19:03:02.606Z,3.92
2018-04-06T19:05:33.119Z,4.10
2018-04-06T19:08:02.656Z,4.30
2018-04-06T19:10:32.864Z,3.80
2018-04-06T19:13:03.435Z,3.70
2018-04-06T19:15:32.915Z,3.90
2018-04-06T19:18:03.174Z,3.85
2018-04-06T19:20:32.841Z,3.75
2018-04-06T19:23:03.541Z,4.82
2018-04-06T19:25:33.955Z,4.15
2018-04-06T19:28:04.473Z,4.00
2018-04-06T19:30:34.289Z,3.97
2018-04-06T19:33:04.544Z,3.83
2018-04-06T19:35:34.007Z,4.00
2018-04-06T19:38:04.239Z,3.83
2018-04-06T19:40:34.391Z,3.78
2018-04-06T19:43:08.190Z,6.72
2018-04-06T19:45:37.699Z,4.62
2018-04-06T19:48:07.776Z,3.92
2018-04-06T19:50:37.351Z,4.18
2018-04-06T19:53:06.615Z,4.78
2018-04-06T19:55:36.042Z,3.80
2018-04-06T19:58:05.384Z,3.53
2018-04-06T20:00:35.645Z,4.05
2018-04-06T20:03:05.012Z,3.65
2018-04-06T20:05:36.471Z,3.90
2018-04-06T20:08:05.880Z,3.22
2018-04-06T20:10:35.092Z,3.90
2018-04-06T20:13:05.719Z,3.35
2018-04-06T20:15:35.930Z,3.58
2018-04-06T20:18:06.507Z,4.10
2018-04-06T20:20:36.028Z,3.00
2018-04-06T20:23:05.465Z,3.17
2018-04-06T20:25:35.797Z,3.75
2018-04-06T20:28:07.828Z,3.40
2018-04-06T20:30:37.348Z,4.12
2018-04-06T20:33:06.735Z,3.45
2018-04-06T20:35:36.261Z,4.07
2018-04-06T20:38:06.611Z,3.90
2018-04-06T20:40:36.149Z,3.87
2018-04-06T20:43:05.587Z,3.67
2018-04-06T20:45:35.133Z,3.95
2018-04-06T20:48:04.522Z,3.60
2018-04-06T20:50:33.998Z,4.85
2018-04-06T20:53:04.298Z,3.80
2018-04-06T20:55:33.559Z,3.92
2018-04-06T20:58:03.106Z,3.33
2018-04-06T21:00:32.624Z,3.30
2018-04-06T21:03:02.273Z,3.45
2018-04-06T21:05:31.806Z,3.87
2018-04-06T21:08:01.503Z,3.70
2018-04-06T21:10:32.179Z,3.92
2018-04-06T21:13:04.890Z,3.90
2018-04-06T21:15:37.420Z,4.40
2018-04-06T21:18:06.664Z,4.47
2018-04-06T21:20:35.981Z,4.65
2018-04-06T21:23:05.483Z,4.00
2018-04-06T21:25:34.912Z,4.00
2018-04-06T21:28:11.701Z,4.20
2018-04-06T21:30:41.108Z,4.00
2018-04-06T21:33:11.248Z,3.92
2018-04-06T21:35:40.764Z,4.68
2018-04-06T21:38:11.053Z,3.95
2018-04-06T21:40:40.684Z,3.90
2018-04-06T21:43:10.943Z,3.75
2018-04-06T21:45:40.452Z,4.05
2018-04-06T21:48:09.918Z,4.15
2018-04-06T21:50:39.399Z,4.50
2018-04-06T21:53:08.687Z,3.75
2018-04-06T21:55:38.147Z,4.95
2018-04-06T21:58:08.232Z,4.07
2018-04-06T22:00:37.775Z,4.12
2018-04-06T22:03:07.524Z,4.35
2018-04-06T22:05:37.015Z,3.90
2018-04-06T22:08:06.471Z,3.85
2018-04-06T22:10:36.096Z,4.37
2018-04-06T22:13:06.567Z,4.10
2018-04-06T22:15:35.978Z,4.78
2018-04-06T22:18:05.598Z,4.15
2018-04-06T22:20:35.049Z,4.50
2018-04-06T22:23:04.638Z,4.62
2018-04-06T22:25:35.124Z,4.72
2018-04-06T22:28:05.457Z,4.90
2018-04-06T22:30:35.863Z,4.68
2018-04-06T22:33:06.259Z,3.60
2018-04-06T22:35:36.622Z,4.72
2018-04-06T22:38:06.303Z,4.20
2018-04-06T22:40:36.751Z,4.75
2018-04-06T22:43:06.477Z,4.90
2018-04-06T22:45:36.741Z,4.12
2018-04-06T22:48:07.145Z,4.70
2018-04-06T22:50:36.917Z,4.20
2018-04-06T22:53:06.563Z,4.57
2018-04-06T22:55:37.168Z,4.37
2018-04-06T22:58:06.896Z,4.85
2018-04-06T23:00:36.352Z,3.92
2018-04-06T23:03:06.017Z,4.75
2018-04-06T23:05:35.744Z,4.95
2018-04-06T23:08:06.124Z,4.20
2018-04-06T23:10:35.659Z,4.30
2018-04-06T23:13:05.329Z,4.82
2018-04-06T23:15:35.419Z,5.07
2018-04-06T23:18:05.946Z,4.20
2018-04-06T23:20:36.130Z,4.90
2018-04-06T23:23:05.778Z,4.20
2018-04-06T23:25:35.200Z,4.95
2018-04-06T23:28:04.600Z,4.95
2018-04-06T23:30:35.043Z,4.70
2018-04-06T23:33:04.760Z,5.55
2018-04-06T23:35:34.361Z,4.97
2018-04-06T23:38:03.980Z,4.10
2018-04-06T23:40:33.542Z,4.40
2018-04-06T23:43:03.071Z,5.32
2018-04-06T23:45:32.908Z,4.43
2018-04-06T23:48:03.547Z,5.05
2018-04-06T23:50:33.119Z,4.50
2018-04-06T23:53:03.124Z,5.18
2018-04-06T23:55:32.837Z,4.68
2018-04-06T23:58:02.460Z,4.55
